Time;durP1;ratioP1;P1;durP2;ratioP2;P2;SDS_P1;SDS_P2;PMS_P1;PMS_P2;Temp;Humidity;BMP_temperature;BMP_pressure;BME280_temperature;BME280_humidity;BME280_pressure;Samples;Min_cycle;Max_cycle;Signal;HPM_P1;HPM_P2
2022/09/01 00:00:37;;;;;;;4.25;3.50;;;;;;;11.79;65.31;98786.72;5049499;28;20044;-79
2022/09/01 00:03:02;;;;;;;5.70;3.83;;;;;;;11.74;65.69;98783.56;5047369;28;20039;-76
2022/09/01 00:05:31;;;;;;;4.20;2.83;;;;;;;11.70;65.25;98782.16;5027579;28;20462;-75
2022/09/01 00:07:56;;;;;;;2.20;1.70;;;;;;;11.71;65.53;98778.53;5030325;28;20036;-77
2022/09/01 00:10:22;;;;;;;1.98;1.67;;;;;;;11.70;65.34;98782.16;5018253;28;20067;-71
2022/09/01 00:12:46;;;;;;;2.65;1.23;;;;;;;11.70;64.99;98778.66;5025051;28;20455;-77
2022/09/01 00:15:12;;;;;;;7.75;1.63;;;;;;;11.69;65.31;98783.16;5015315;28;20479;-74
2022/09/01 00:17:37;;;;;;;2.53;1.50;;;;;;;11.68;65.10;98780.63;5028435;28;20562;-78
2022/09/01 00:20:04;;;;;;;2.50;1.42;;;;;;;11.61;65.77;98783.00;5020164;28;20044;-78
2022/09/01 00:22:29;;;;;;;2.40;1.48;;;;;;;11.57;65.36;98790.44;5003519;28;20032;-76
2022/09/01 00:24:54;;;;;;;1.75;1.42;;;;;;;11.56;65.31;98787.88;5038928;28;20047;-70
2022/09/01 00:27:19;;;;;;;2.33;1.65;;;;;;;11.55;65.99;98784.38;5036462;28;20036;-68
2022/09/01 00:29:44;;;;;;;2.78;1.40;;;;;;;11.52;65.64;98794.47;5036116;28;20076;-68
2022/09/01 00:32:09;;;;;;;2.10;1.30;;;;;;;11.45;66.09;98796.84;5036450;28;20068;-67
2022/09/01 00:34:34;;;;;;;2.35;1.70;;;;;;;11.39;66.36;98792.06;5036772;28;20466;-67
2022/09/01 00:36:59;;;;;;;1.20;1.10;;;;;;;11.35;66.34;98792.47;5037420;28;20409;-73
2022/09/01 00:39:24;;;;;;;3.47;1.20;;;;;;;11.33;66.59;98794.41;5055615;28;20131;-71
2022/09/01 00:41:50;;;;;;;1.45;1.08;;;;;;;11.33;66.51;98791.75;5020293;28;20674;-73
2022/09/01 00:44:17;;;;;;;4.85;2.20;;;;;;;11.32;67.11;98801.56;5022487;28;20040;-70
2022/09/01 00:46:45;;;;;;;2.33;1.27;;;;;;;11.38;66.81;98795.72;5039002;28;20040;-71
2022/09/01 00:49:14;;;;;;;3.83;1.48;;;;;;;11.42;66.16;98793.59;5040786;28;20070;-75
2022/09/01 00:51:45;;;;;;;1.55;1.05;;;;;;;11.52;65.94;98797.97;5024210;28;20032;-70
2022/09/01 00:54:14;;;;;;;1.58;1.23;;;;;;;11.57;65.75;98797.59;5040763;28;20142;-72
2022/09/01 00:56:40;;;;;;;1.20;1.10;;;;;;;11.59;65.73;98796.47;5036639;28;20057;-69
2022/09/01 00:59:07;;;;;;;1.40;0.73;;;;;;;11.63;65.12;98791.69;5036962;28;20044;-72
2022/09/01 01:01:35;;;;;;;3.08;1.17;;;;;;;11.65;65.12;98803.94;5038107;28;20534;-73
2022/09/01 01:04:01;;;;;;;2.10;1.25;;;;;;;11.69;65.41;98798.31;5021362;28;20048;-76
2022/09/01 01:06:31;;;;;;;2.55;0.80;;;;;;;11.74;65.32;98796.91;5020823;28;20119;-74
2022/09/01 01:08:57;;;;;;;1.27;1.17;;;;;;;11.80;64.94;98796.41;5020531;28;20051;-73
2022/09/01 01:11:25;;;;;;;3.25;1.02;;;;;;;11.83;64.44;98795.31;5038107;28;20043;-73
2022/09/01 01:14:08;;;;;;;6.93;1.20;;;;;;;11.82;64.14;98794.44;5020147;28;20048;-72
2022/09/01 01:16:33;;;;;;;1.67;1.30;;;;;;;11.77;64.18;98791.34;5037672;28;20079;-71
2022/09/01 01:18:58;;;;;;;4.38;1.63;;;;;;;11.75;64.37;98792.41;5037694;28;20055;-70
2022/09/01 01:24:30;;;;;;;1.52;0.90;;;;;;;11.73;64.43;98791.75;5003091;28;20098;-70
2022/09/01 01:26:58;;;;;;;0.93;0.93;;;;;;;11.69;63.89;98783.16;5036446;28;20044;-72
2022/09/01 01:29:28;;;;;;;1.25;1.15;;;;;;;11.67;63.54;98787.78;5047118;28;20154;-71
2022/09/01 01:31:53;;;;;;;1.25;1.10;;;;;;;11.66;64.63;98783.41;5020178;28;20064;-71
2022/09/01 01:34:20;;;;;;;0.85;0.82;;;;;;;11.65;64.13;98784.41;5037107;28;20109;-72
2022/09/01 01:36:46;;;;;;;1.25;0.88;;;;;;;11.61;63.82;98781.19;5036679;28;20044;-71
2022/09/01 01:39:16;;;;;;;2.58;1.05;;;;;;;11.59;63.88;98784.97;5019088;28;20053;-72
2022/09/01 01:41:47;;;;;;;1.40;0.90;;;;;;;11.47;63.85;98783.38;5037315;28;20053;-71
2022/09/01 01:44:14;;;;;;;2.85;0.95;;;;;;;11.35;64.17;98779.13;5019552;28;20052;-72
2022/09/01 01:46:46;;;;;;;1.85;1.23;;;;;;;11.25;64.09;98774.59;5019601;28;20040;-73
2022/09/01 01:49:17;;;;;;;1.85;0.95;;;;;;;11.12;65.01;98781.13;5036520;28;20489;-72
2022/09/01 01:51:44;;;;;;;1.67;1.33;;;;;;;11.03;64.96;98774.78;5026826;28;20088;-77
2022/09/01 01:54:11;;;;;;;1.13;1.08;;;;;;;10.99;65.48;98786.69;5005977;28;20414;-74
2022/09/01 01:56:38;;;;;;;2.17;1.20;;;;;;;10.95;65.33;98782.59;5036873;28;20048;-71
2022/09/01 01:59:03;;;;;;;2.47;1.00;;;;;;;10.88;65.36;98779.63;5020045;28;20051;-74
2022/09/01 02:01:30;;;;;;;4.03;1.20;;;;;;;10.86;65.55;98784.25;5019547;28;20037;-71
2022/09/01 02:03:57;;;;;;;0.88;0.68;;;;;;;10.83;65.79;98792.53;5019168;28;20075;-70
2022/09/01 02:06:24;;;;;;;1.23;1.05;;;;;;;10.75;66.28;98787.00;5021272;28;20040;-75
2022/09/01 02:09:01;;;;;;;0.80;0.80;;;;;;;10.69;66.08;98786.69;5022324;28;20048;-68
2022/09/01 02:11:27;;;;;;;;;;;;;;;10.73;66.13;98786.25;5002482;28;20044;-73
2022/09/01 02:13:57;;;;;;;1.85;1.13;;;;;;;10.63;66.18;98781.84;5020006;28;20387;-71
2022/09/01 02:16:24;;;;;;;2.10;1.30;;;;;;;10.55;66.64;98798.50;5002721;28;20040;-70
2022/09/01 02:18:50;;;;;;;3.72;1.42;;;;;;;10.53;66.92;98787.97;5019122;28;20123;-69
2022/09/01 02:21:19;;;;;;;2.45;1.08;;;;;;;10.55;66.49;98786.03;5001896;28;20050;-70
2022/09/01 02:24:02;;;;;;;1.52;0.85;;;;;;;10.52;66.57;98798.75;5036219;28;20404;-70
2022/09/01 02:26:32;;;;;;;1.73;1.00;;;;;;;10.51;66.43;98791.75;5018453;28;20497;-70
2022/09/01 02:29:03;;;;;;;1.25;1.00;;;;;;;10.48;66.33;98787.53;5001474;28;20047;-70
2022/09/01 02:31:28;;;;;;;1.05;1.05;;;;;;;10.47;66.34;98787.66;5019011;28;20197;-70
2022/09/01 02:33:55;;;;;;;0.98;0.65;;;;;;;10.45;66.44;98795.78;5018548;28;20123;-71
2022/09/01 02:36:21;;;;;;;1.20;1.10;;;;;;;10.44;66.42;98787.91;5018365;28;20135;-72
2022/09/01 02:38:47;;;;;;;3.22;1.40;;;;;;;10.43;66.71;98792.41;5018203;28;20072;-69
2022/09/01 02:41:13;;;;;;;1.17;1.08;;;;;;;10.40;66.40;98789.13;5036274;28;20040;-71
2022/09/01 02:43:38;;;;;;;1.02;1.02;;;;;;;10.37;66.40;98792.09;5018190;28;20097;-69
2022/09/01 02:46:05;;;;;;;4.03;1.67;;;;;;;10.32;67.25;98788.94;5018007;28;20044;-69
2022/09/01 02:48:36;;;;;;;1.98;1.48;;;;;;;10.35;67.43;98794.88;5001687;28;20052;-71
2022/09/01 02:51:06;;;;;;;3.25;1.30;;;;;;;10.36;67.45;98791.22;5036959;28;20127;-70
2022/09/01 02:53:33;;;;;;;6.70;1.45;;;;;;;10.37;67.06;98786.75;5019664;28;20105;-67
2022/09/01 02:55:58;;;;;;;3.15;1.30;;;;;;;10.36;67.00;98785.91;5020386;28;20063;-67
2022/09/01 02:58:26;;;;;;;3.22;1.88;;;;;;;10.37;66.63;98790.25;5021693;28;20049;-69
2022/09/01 03:00:53;;;;;;;3.38;1.42;;;;;;;10.43;67.03;98781.75;5005407;28;20048;-67
2022/09/01 03:03:20;;;;;;;1.60;1.33;;;;;;;10.47;66.80;98777.84;5018795;28;20591;-68
2022/09/01 03:05:45;;;;;;;1.60;1.23;;;;;;;10.50;66.73;98782.06;5018150;28;20070;-69
2022/09/01 03:08:14;;;;;;;2.85;1.35;;;;;;;10.56;66.52;98784.22;5017520;28;20044;-70
2022/09/01 03:10:40;;;;;;;1.88;1.38;;;;;;;10.61;66.25;98786.50;4985997;28;20113;-69
2022/09/01 03:13:17;;;;;;;1.38;1.27;;;;;;;10.76;66.64;98782.50;5018590;28;20476;-70
2022/09/01 03:15:43;;;;;;;4.07;1.10;;;;;;;10.93;65.46;98786.41;5001457;28;20052;-68
2022/09/01 03:18:10;;;;;;;1.13;1.00;;;;;;;11.12;65.42;98786.47;5017578;28;20543;-68
2022/09/01 03:20:38;;;;;;;2.38;2.17;;;;;;;11.28;64.83;98782.34;5017392;28;20078;-68
2022/09/01 03:23:07;;;;;;;1.23;0.90;;;;;;;11.32;64.56;98779.38;5017068;28;20498;-68
2022/09/01 03:25:33;;;;;;;1.33;1.17;;;;;;;11.38;63.25;98779.72;5017565;28;20043;-70
2022/09/01 03:28:01;;;;;;;2.22;1.10;;;;;;;11.42;63.26;98785.59;5017526;28;20052;-70
2022/09/01 03:30:29;;;;;;;12.95;1.70;;;;;;;11.44;63.42;98788.97;5018222;28;20514;-70
2022/09/01 03:32:53;;;;;;;3.05;1.30;;;;;;;11.46;62.65;98792.38;5018581;28;20044;-68
2022/09/01 03:35:18;;;;;;;3.97;1.13;;;;;;;11.43;62.28;98782.78;5036449;28;20044;-69
2022/09/01 03:37:43;;;;;;;1.10;1.00;;;;;;;11.38;62.01;98784.19;5017953;28;20091;-68
2022/09/01 03:40:10;;;;;;;1.25;1.00;;;;;;;11.33;62.28;98791.75;5017131;28;20139;-70
2022/09/01 03:42:36;;;;;;;2.70;1.02;;;;;;;11.31;62.15;98793.69;5018325;28;20045;-70
2022/09/01 03:45:08;;;;;;;1.02;1.02;;;;;;;11.37;62.57;98795.84;5036975;28;20032;-68
2022/09/01 03:47:39;;;;;;;1.70;1.08;;;;;;;11.63;61.91;98799.69;5017751;28;20049;-69
2022/09/01 03:50:21;;;;;;;6.25;0.88;;;;;;;11.95;60.15;98797.72;5020579;28;20143;-72
2022/09/01 03:52:57;;;;;;;1.20;1.10;;;;;;;12.22;59.27;98798.84;5003218;28;20040;-70
2022/09/01 03:55:26;;;;;;;1.30;1.20;;;;;;;12.24;58.96;98789.69;5026703;28;20073;-71
2022/09/01 03:57:53;;;;;;;1.65;1.40;;;;;;;12.24;58.84;98787.03;5037200;28;20105;-71
2022/09/01 04:00:22;;;;;;;1.05;0.95;;;;;;;12.25;58.28;98799.41;5037691;28;20043;-70
2022/09/01 04:02:49;;;;;;;1.23;0.90;;;;;;;12.27;58.10;98785.91;5023628;28;20466;-69
2022/09/01 04:05:15;;;;;;;3.00;1.15;;;;;;;12.26;58.17;98785.06;5025878;28;20051;-70
2022/09/01 04:07:40;;;;;;;3.22;1.08;;;;;;;12.27;57.80;98786.75;5058844;28;20040;-69
2022/09/01 04:10:10;;;;;;;2.92;0.93;;;;;;;12.33;57.69;98783.50;5022891;28;20040;-68
2022/09/01 04:12:36;;;;;;;1.55;0.88;;;;;;;12.42;57.79;98784.47;5026549;28;20134;-70
2022/09/01 04:15:00;;;;;;;2.03;1.02;;;;;;;12.46;57.69;98780.53;5021866;28;20073;-70
2022/09/01 04:20:10;;;;;;;5.68;1.27;;;;;;;12.43;56.57;98780.81;5041641;28;20044;-69
2022/09/01 04:22:36;;;;;;;0.70;0.70;;;;;;;12.36;56.34;98785.91;5043640;28;20120;-69
2022/09/01 04:25:01;;;;;;;2.13;1.10;;;;;;;12.36;56.94;98793.06;5062025;28;20055;-69
2022/09/01 04:27:26;;;;;;;3.67;0.70;;;;;;;12.31;57.27;98785.47;5043146;28;20120;-69
2022/09/01 04:29:51;;;;;;;2.42;1.23;;;;;;;12.30;57.20;98785.63;5042690;28;20048;-68
2022/09/01 04:32:20;;;;;;;1.67;1.13;;;;;;;12.25;57.06;98787.88;5041594;28;20063;-67
2022/09/01 04:34:48;;;;;;;3.00;0.80;;;;;;;12.25;57.06;98791.38;5058438;28;20175;-68
2022/09/01 04:37:17;;;;;;;4.38;1.00;;;;;;;12.27;57.04;98792.09;5040227;28;20050;-68
2022/09/01 04:39:51;;;;;;;3.42;1.38;;;;;;;12.37;57.03;98789.41;5040011;28;20071;-69
2022/09/01 04:42:19;;;;;;;1.02;0.98;;;;;;;12.42;56.51;98797.00;5039938;28;20042;-69
2022/09/01 04:44:45;;;;;;;3.40;1.48;;;;;;;12.45;56.31;98792.22;5039815;28;20039;-70
2022/09/01 04:47:13;;;;;;;2.88;1.48;;;;;;;12.47;56.38;98789.41;5023346;28;20066;-70
2022/09/01 04:49:40;;;;;;;2.50;1.52;;;;;;;12.51;56.63;98797.00;5023094;28;20040;-71
2022/09/01 04:52:05;;;;;;;1.00;0.90;;;;;;;12.53;55.70;98795.00;5039878;28;20502;-69
2022/09/01 04:54:31;;;;;;;3.28;1.45;;;;;;;12.54;55.43;98799.38;5039597;28;20572;-68
2022/09/01 04:56:57;;;;;;;1.65;0.85;;;;;;;12.54;55.23;98801.19;5039688;28;20106;-68
2022/09/01 04:59:25;;;;;;;3.50;1.17;;;;;;;12.53;55.37;98800.34;5039689;28;20077;-69
2022/09/01 05:01:59;;;;;;;;;;;;;;;12.73;56.27;98801.19;5040270;28;20517;-69
2022/09/01 05:04:28;;;;;;;4.07;1.15;;;;;;;12.62;55.07;98796.00;5057883;28;20421;-69
2022/09/01 05:06:59;;;;;;;0.90;0.80;;;;;;;12.68;55.11;98809.63;5056595;28;20048;-69
2022/09/01 05:09:35;;;;;;;3.63;1.02;;;;;;;12.80;55.11;98807.66;5039459;28;20044;-69
2022/09/01 05:12:22;;;;;;;1.05;0.90;;;;;;;12.86;54.79;98798.22;5057565;28;20081;-69
2022/09/01 05:14:48;;;;;;;3.75;1.00;;;;;;;12.95;54.58;98805.38;5057749;28;20040;-68
2022/09/01 05:17:17;;;;;;;4.45;1.05;;;;;;;13.00;53.71;98795.06;5039353;28;20089;-69
2022/09/01 05:19:46;;;;;;;5.00;1.17;;;;;;;13.07;54.38;98807.72;5022722;28;20414;-68
2022/09/01 05:22:14;;;;;;;2.78;1.50;;;;;;;13.19;53.89;98804.91;5039615;28;20047;-68
2022/09/01 05:24:42;;;;;;;2.13;1.65;;;;;;;13.25;52.92;98805.16;5040216;28;20167;-69
2022/09/01 05:27:09;;;;;;;6.88;1.48;;;;;;;13.23;52.79;98809.81;5039922;28;20051;-68
2022/09/01 05:29:37;;;;;;;1.13;0.77;;;;;;;13.31;53.01;98807.25;5039396;28;20071;-68
2022/09/01 05:32:07;;;;;;;1.85;0.90;;;;;;;13.31;52.53;98809.94;5038339;28;20498;-69
2022/09/01 05:34:36;;;;;;;2.67;1.30;;;;;;;13.34;52.18;98814.97;5039159;28;20054;-69
2022/09/01 05:37:01;;;;;;;4.22;1.00;;;;;;;13.40;52.40;98805.53;5039137;28;20055;-68
2022/09/01 05:39:26;;;;;;;3.10;1.02;;;;;;;13.46;52.42;98815.63;5039098;28;20154;-68
2022/09/01 05:41:52;;;;;;;2.78;1.80;;;;;;;13.52;51.30;98811.53;5057200;28;20386;-69
2022/09/01 05:44:17;;;;;;;2.42;1.20;;;;;;;13.62;51.50;98815.00;5022539;28;20458;-70
2022/09/01 05:46:43;;;;;;;8.23;1.67;;;;;;;13.66;50.50;98811.00;5023795;28;20463;-70
2022/09/01 05:49:12;;;;;;;1.60;1.17;;;;;;;13.58;51.06;98806.41;5039794;28;20522;-70
2022/09/01 05:51:41;;;;;;;1.80;1.25;;;;;;;13.49;51.02;98817.16;5022100;28;20040;-70
2022/09/01 05:54:08;;;;;;;5.20;1.35;;;;;;;13.42;50.89;98814.25;5038710;28;20585;-69
2022/09/01 05:56:33;;;;;;;1.48;0.90;;;;;;;13.42;51.07;98807.06;5038817;28;20079;-69
2022/09/01 05:59:01;;;;;;;1.27;1.05;;;;;;;13.49;50.53;98818.00;5056662;28;20086;-69
2022/09/01 06:01:32;;;;;;;1.98;1.00;;;;;;;13.51;50.09;98813.38;5040082;28;20044;-69
2022/09/01 06:04:02;;;;;;;3.40;1.00;;;;;;;13.53;49.65;98805.19;5039006;28;20055;-70
2022/09/01 06:06:36;;;;;;;2.00;1.30;;;;;;;13.51;48.86;98808.00;5038633;28;20430;-69
2022/09/01 06:09:05;;;;;;;5.65;1.50;;;;;;;13.55;48.86;98814.72;5040242;28;20417;-68
2022/09/01 06:11:31;;;;;;;1.65;0.93;;;;;;;13.61;48.73;98810.63;5047885;28;20051;-69
2022/09/01 06:13:59;;;;;;;2.78;1.48;;;;;;;13.70;48.44;98802.53;5038639;28;20097;-71
2022/09/01 06:16:24;;;;;;;4.18;1.05;;;;;;;13.74;48.44;98811.13;5038056;28;20056;-71
2022/09/01 06:18:56;;;;;;;11.90;1.80;;;;;;;13.86;48.43;98801.88;5038515;28;20182;-71
2022/09/01 06:21:21;;;;;;;4.85;1.23;;;;;;;13.91;47.26;98804.94;5037952;28;20070;-71
2022/09/01 06:23:49;;;;;;;6.32;1.25;;;;;;;13.98;46.78;98800.69;5038695;28;20089;-69
2022/09/01 06:26:22;;;;;;;1.63;1.05;;;;;;;14.09;46.31;98796.94;5038362;28;20054;-69
2022/09/01 06:28:53;;;;;;;4.68;1.27;;;;;;;14.06;46.38;98795.41;5005940;28;20123;-69
2022/09/01 06:31:22;;;;;;;8.48;1.80;;;;;;;14.03;46.07;98803.72;5038299;28;20453;-69
2022/09/01 06:33:50;;;;;;;2.58;1.50;;;;;;;13.96;46.37;98802.66;5038205;28;20044;-68
2022/09/01 06:36:15;;;;;;;1.25;1.15;;;;;;;13.88;46.55;98807.94;5056836;28;20044;-71
2022/09/01 06:38:41;;;;;;;2.75;1.02;;;;;;;13.69;46.99;98810.72;5038193;28;20048;-69
2022/09/01 06:41:09;;;;;;;4.40;1.83;;;;;;;13.57;47.50;98806.56;5038365;28;20047;-67
2022/09/01 06:43:35;;;;;;;2.67;1.27;;;;;;;13.31;48.02;98804.59;5021215;28;20044;-69
2022/09/01 06:46:01;;;;;;;4.35;1.20;;;;;;;13.31;48.53;98804.59;5021432;28;20414;-70
2022/09/01 06:48:26;;;;;;;1.40;1.30;;;;;;;13.27;49.38;98810.38;5038298;28;20040;-68
2022/09/01 06:51:02;;;;;;;2.33;1.20;;;;;;;13.22;49.57;98810.78;5021838;28;20044;-69
2022/09/01 06:53:27;;;;;;;4.28;1.45;;;;;;;13.22;49.48;98818.81;5038200;28;20040;-68
2022/09/01 06:55:55;;;;;;;1.08;0.75;;;;;;;13.26;49.96;98814.03;5021240;28;20048;-68
2022/09/01 06:58:19;;;;;;;5.20;1.27;;;;;;;13.33;49.76;98815.97;5037843;28;20047;-68
2022/09/01 07:00:48;;;;;;;3.45;1.02;;;;;;;13.34;49.60;98809.63;5038035;28;20040;-70
2022/09/01 07:03:14;;;;;;;3.15;1.15;;;;;;;13.38;49.25;98815.53;5038029;28;20506;-69
2022/09/01 07:05:50;;;;;;;2.92;1.40;;;;;;;13.43;49.65;98819.44;5020895;28;20051;-69
2022/09/01 07:08:20;;;;;;;5.75;1.25;;;;;;;13.41;49.51;98824.13;5037927;28;20048;-70
2022/09/01 07:11:05;;;;;;;3.78;1.33;;;;;;;13.35;50.19;98819.34;5021518;28;20079;-69
2022/09/01 07:13:30;;;;;;;1.25;1.17;;;;;;;13.27;49.89;98819.25;5038418;28;20040;-69
2022/09/01 07:15:57;;;;;;;4.57;1.45;;;;;;;13.31;50.28;98820.66;5037665;28;20075;-69
2022/09/01 07:18:24;;;;;;;2.92;1.20;;;;;;;13.42;50.48;98830.31;5037344;28;20055;-69
2022/09/01 07:20:50;;;;;;;5.40;1.67;;;;;;;13.62;50.03;98825.72;5037499;28;20044;-71
2022/09/01 07:23:19;;;;;;;3.85;1.92;;;;;;;13.75;49.77;98831.56;5038132;28;20048;-69
2022/09/01 07:25:47;;;;;;;2.50;1.67;;;;;;;13.75;49.55;98823.53;5038075;28;20039;-70
2022/09/01 07:28:31;;;;;;;3.50;1.73;;;;;;;13.78;49.14;98828.56;5054524;28;20047;-67
2022/09/01 07:30:58;;;;;;;2.80;1.58;;;;;;;13.76;48.73;98831.44;5036979;28;20379;-68
2022/09/01 07:33:24;;;;;;;1.30;1.20;;;;;;;13.86;48.34;98825.16;5037067;28;20048;-69
2022/09/01 07:35:54;;;;;;;3.42;1.33;;;;;;;14.07;48.23;98823.88;5036850;28;20051;-68
2022/09/01 07:38:19;;;;;;;1.75;1.48;;;;;;;14.26;47.92;98824.72;5038023;28;20146;-72
2022/09/01 07:40:45;;;;;;;10.10;2.50;;;;;;;14.43;47.32;98829.31;5055215;28;20051;-70
2022/09/01 07:43:21;;;;;;;1.52;1.38;;;;;;;14.57;46.84;98818.00;5037170;28;20052;-70
2022/09/01 07:46:12;;;;;;;6.30;2.15;;;;;;;14.53;46.10;98822.84;5054362;28;20044;-69
2022/09/01 07:48:37;;;;;;;2.28;1.42;;;;;;;14.51;46.25;98832.03;5020869;28;20535;-71
2022/09/01 07:51:03;;;;;;;2.63;2.00;;;;;;;14.54;46.52;98829.06;5037859;28;20074;-70
2022/09/01 07:53:30;;;;;;;9.95;2.05;;;;;;;14.62;46.12;98822.91;5038220;28;20538;-71
2022/09/01 07:56:00;;;;;;;3.88;1.70;;;;;;;14.70;45.29;98831.03;5020794;28;20048;-71
2022/09/01 07:58:28;;;;;;;6.53;1.92;;;;;;;14.79;45.42;98828.25;5020779;28;20097;-70
2022/09/01 08:01:01;;;;;;;4.88;1.55;;;;;;;14.95;45.11;98822.16;5038205;28;20040;-70
2022/09/01 08:03:26;;;;;;;4.38;1.80;;;;;;;15.09;44.16;98826.13;5057011;28;20082;-68
2022/09/01 08:05:59;;;;;;;5.82;2.20;;;;;;;15.17;43.59;98820.78;5038339;28;20067;-69
2022/09/01 08:08:24;;;;;;;3.15;1.67;;;;;;;15.31;42.74;98819.38;5037587;28;20116;-70
2022/09/01 08:10:49;;;;;;;3.80;2.05;;;;;;;15.42;42.79;98822.63;5037258;28;20071;-70
2022/09/01 08:13:16;;;;;;;1.45;1.35;;;;;;;15.36;42.67;98825.94;5038173;28;20075;-69
2022/09/01 08:15:41;;;;;;;2.58;1.50;;;;;;;15.32;42.59;98824.59;5042394;28;20048;-72
2022/09/01 08:18:07;;;;;;;2.35;1.33;;;;;;;14.90;42.72;98824.47;5045290;28;20536;-70
2022/09/01 08:20:36;;;;;;;3.28;1.17;;;;;;;14.91;43.02;98823.47;5036823;28;20048;-71
2022/09/01 08:23:17;;;;;;;1.90;1.27;;;;;;;14.99;42.35;98831.59;5037315;28;20121;-71
2022/09/01 08:25:45;;;;;;;2.13;1.58;;;;;;;15.09;42.57;98828.81;5019512;28;20531;-73
2022/09/01 08:28:11;;;;;;;2.88;1.85;;;;;;;15.25;42.44;98818.16;5054665;28;20112;-70
2022/09/01 08:30:40;;;;;;;4.38;1.33;;;;;;;15.27;41.90;98832.25;5036576;28;20043;-69
2022/09/01 08:33:05;;;;;;;3.20;1.00;;;;;;;15.18;41.88;98820.63;5040430;28;20052;-67
2022/09/01 08:35:30;;;;;;;6.68;2.45;;;;;;;15.03;42.34;98832.09;5059815;28;20212;-68
2022/09/01 08:37:55;;;;;;;3.03;0.70;;;;;;;14.87;42.82;98833.69;5041929;28;20473;-69
2022/09/01 08:40:22;;;;;;;2.65;1.73;;;;;;;14.81;42.96;98836.13;5036801;28;20525;-69
2022/09/01 08:43:04;;;;;;;2.00;1.40;;;;;;;14.74;43.43;98838.63;5036730;28;20086;-72
2022/09/01 08:45:44;;;;;;;4.65;2.05;;;;;;;14.80;43.51;98835.28;5036930;28;20587;-69
2022/09/01 08:48:24;;;;;;;3.10;1.98;;;;;;;15.03;43.21;98834.78;5054539;28;20418;-71
2022/09/01 08:50:56;;;;;;;4.15;1.20;;;;;;;15.03;42.74;98842.84;5036473;28;20040;-70
2022/09/01 08:53:40;;;;;;;4.35;1.33;;;;;;;15.04;42.87;98837.31;5036162;28;20047;-68
2022/09/01 08:56:08;;;;;;;3.55;1.50;;;;;;;15.06;42.44;98846.06;5036209;28;20048;-69
2022/09/01 08:58:34;;;;;;;5.65;2.95;;;;;;;15.14;42.46;98850.63;5020340;28;20044;-69
2022/09/01 09:01:34;;;;;;;1.55;1.42;;;;;;;15.20;42.24;98841.97;5010890;28;20134;-70
2022/09/01 09:04:01;;;;;;;1.08;1.00;;;;;;;15.25;42.04;98845.00;5037571;28;20140;-70
2022/09/01 09:06:50;;;;;;;4.00;2.33;;;;;;;15.28;42.40;98850.06;5055050;28;20131;-70
2022/09/01 09:09:15;;;;;;;3.33;1.65;;;;;;;15.08;42.33;98849.44;5057778;28;20084;-70
2022/09/01 09:12:08;;;;;;;1.30;1.15;;;;;;;15.13;42.56;98846.25;5039441;28;20067;-69
2022/09/01 09:14:42;;;;;;;4.43;1.05;;;;;;;15.01;42.75;98847.56;5057633;28;20576;-72
2022/09/01 09:17:07;;;;;;;2.60;1.60;;;;;;;14.90;42.86;98860.19;5040080;28;20040;-73
2022/09/01 09:19:38;;;;;;;2.05;1.60;;;;;;;14.82;42.45;98859.28;5058546;28;20044;-71
2022/09/01 09:22:09;;;;;;;1.30;1.20;;;;;;;14.78;43.29;98871.34;5059813;28;20402;-74
2022/09/01 09:24:54;;;;;;;10.68;1.42;;;;;;;14.77;43.84;98875.03;5039689;28;20616;-73
2022/09/01 09:27:25;;;;;;;2.33;1.60;;;;;;;14.61;43.88;98874.88;5039512;28;20066;-71
2022/09/01 09:29:55;;;;;;;1.38;1.10;;;;;;;14.41;44.41;98876.88;5057520;28;20135;-72
2022/09/01 09:32:22;;;;;;;3.60;1.95;;;;;;;14.30;44.43;98875.22;5057736;28;20481;-71
2022/09/01 09:34:47;;;;;;;3.30;2.17;;;;;;;14.34;44.79;98881.94;5058108;28;20047;-70
2022/09/01 09:37:22;;;;;;;4.57;2.15;;;;;;;14.56;44.49;98872.66;5023091;28;20066;-71
2022/09/01 09:40:08;;;;;;;2.83;1.60;;;;;;;14.83;43.73;98864.50;5057607;28;20050;-71
2022/09/01 09:42:34;;;;;;;6.97;2.33;;;;;;;14.75;42.92;98867.13;5039350;28;20036;-71
2022/09/01 09:44:59;;;;;;;2.88;1.88;;;;;;;14.64;42.93;98872.75;5057500;28;20419;-72
2022/09/01 09:47:45;;;;;;;3.70;2.72;;;;;;;14.68;43.69;98874.09;5039817;28;20560;-72
2022/09/01 09:50:16;;;;;;;4.25;3.05;;;;;;;14.55;43.52;98870.97;5058783;28;20075;-71
2022/09/01 09:52:42;;;;;;;3.00;1.80;;;;;;;14.47;42.96;98889.66;5058599;28;20082;-71
2022/09/01 09:55:20;;;;;;;4.60;2.22;;;;;;;14.56;43.80;98885.25;5054907;28;20056;-71
2022/09/01 09:57:46;;;;;;;3.72;2.03;;;;;;;14.52;43.20;98887.38;5039392;28;20048;-71
2022/09/01 10:00:33;;;;;;;3.55;1.77;;;;;;;14.64;43.46;98899.56;5023784;28;20181;-69
2022/09/01 10:03:06;;;;;;;4.20;1.83;;;;;;;14.55;43.39;98889.75;5039376;28;20044;-70
2022/09/01 10:05:45;;;;;;;2.78;1.52;;;;;;;14.58;43.04;98891.28;5038300;28;20183;-68
2022/09/01 10:08:36;;;;;;;3.55;1.60;;;;;;;14.59;43.23;98892.97;5038149;28;20040;-69
2022/09/01 10:11:00;;;;;;;2.15;1.40;;;;;;;14.56;43.24;98891.41;5019820;28;20605;-70
2022/09/01 10:13:28;;;;;;;4.47;2.55;;;;;;;14.50;43.42;98908.13;5038198;28;20041;-69
2022/09/01 10:15:55;;;;;;;3.50;1.38;;;;;;;14.57;43.28;98901.16;5037548;28;20037;-68
2022/09/01 10:18:25;;;;;;;5.72;1.75;;;;;;;14.61;43.14;98889.13;5037545;28;20040;-71
2022/09/01 10:20:54;;;;;;;5.05;2.85;;;;;;;14.69;43.06;98902.63;5025855;28;20048;-71
2022/09/01 10:23:18;;;;;;;6.32;1.73;;;;;;;14.68;42.91;98900.09;5030876;28;20041;-72
2022/09/01 10:25:44;;;;;;;2.67;1.35;;;;;;;14.76;42.79;98900.19;5036989;28;20489;-71
2022/09/01 10:28:18;;;;;;;1.75;1.25;;;;;;;15.00;42.51;98899.53;5036672;28;20051;-71
2022/09/01 10:30:46;;;;;;;4.13;1.50;;;;;;;15.16;41.96;98908.56;5036434;28;20052;-72
2022/09/01 10:33:13;;;;;;;4.57;1.58;;;;;;;15.24;41.56;98902.38;5035998;28;20374;-71
2022/09/01 10:35:43;;;;;;;2.03;1.58;;;;;;;15.26;41.60;98901.22;5036455;28;20104;-68
2022/09/01 10:38:16;;;;;;;1.92;1.77;;;;;;;15.29;41.32;98905.47;5035940;28;20147;-70
2022/09/01 10:40:47;;;;;;;2.15;1.50;;;;;;;15.24;41.38;98908.59;5036055;28;20032;-68
2022/09/01 10:43:24;;;;;;;4.55;2.05;;;;;;;15.39;42.17;98906.19;5036255;28;20883;-69
2022/09/01 10:45:51;;;;;;;3.78;1.90;;;;;;;15.50;41.67;98903.25;5017872;28;20044;-70
2022/09/01 10:48:24;;;;;;;3.67;2.03;;;;;;;15.71;41.39;98902.88;5035844;28;20123;-71
2022/09/01 10:51:08;;;;;;;4.43;2.58;;;;;;;15.84;40.86;98905.13;5035798;28;20048;-70
2022/09/01 10:53:33;;;;;;;5.47;2.00;;;;;;;15.74;40.07;98897.19;5035932;28;20434;-70
2022/09/01 10:56:07;;;;;;;3.13;2.17;;;;;;;15.68;41.30;98905.06;5036209;28;20084;-71
2022/09/01 10:58:45;;;;;;;2.63;1.92;;;;;;;15.38;41.13;98899.13;5017930;28;20094;-72
2022/09/01 11:01:10;;;;;;;1.38;1.20;;;;;;;15.23;41.51;98900.72;5001405;28;20047;-70
2022/09/01 11:03:38;;;;;;;2.90;1.80;;;;;;;15.22;41.72;98912.47;5018099;28;20040;-70
2022/09/01 11:06:06;;;;;;;2.58;2.05;;;;;;;15.17;41.73;98907.56;5035825;28;20048;-71
2022/09/01 11:08:30;;;;;;;1.45;1.30;;;;;;;15.19;41.73;98913.63;5018886;28;20066;-73
2022/09/01 11:11:06;;;;;;;2.67;1.85;;;;;;;15.43;41.41;98904.03;5036304;28;20076;-71
2022/09/01 11:13:36;;;;;;;4.90;1.85;;;;;;;15.59;41.39;98896.09;5036973;28;20403;-72
2022/09/01 11:16:26;;;;;;;3.03;1.83;;;;;;;16.00;40.84;98902.53;5002574;28;20044;-72
2022/09/01 11:18:51;;;;;;;1.70;1.20;;;;;;;16.13;40.21;98905.59;5036837;28;20036;-71
2022/09/01 11:21:27;;;;;;;4.85;2.00;;;;;;;16.44;40.19;98908.53;5036474;28;20055;-70
2022/09/01 11:24:31;;;;;;;1.30;1.20;;;;;;;16.68;39.60;98899.72;5018366;28;20411;-69
2022/09/01 11:26:56;;;;;;;4.40;1.77;;;;;;;16.76;38.83;98897.03;4941765;28;20065;-67
2022/09/01 11:29:53;;;;;;;6.05;1.75;;;;;;;16.90;39.10;98893.66;4974232;28;20048;-70
2022/09/01 11:32:24;;;;;;;1.50;1.13;;;;;;;16.75;38.38;98905.25;4957869;28;20050;-66
2022/09/01 11:34:51;;;;;;;3.40;1.98;;;;;;;16.68;38.55;98897.03;4957203;28;20425;-67
2022/09/01 11:37:20;;;;;;;4.95;1.90;;;;;;;16.30;39.43;98906.47;4974235;28;20531;-67
2022/09/01 11:39:49;;;;;;;5.72;1.67;;;;;;;15.90;39.21;98899.13;4974446;28;20048;-66
2022/09/01 11:42:18;;;;;;;1.20;1.10;;;;;;;15.68;39.21;98892.47;4974100;28;20543;-66
2022/09/01 11:45:05;;;;;;;3.45;1.65;;;;;;;15.81;40.15;98892.84;4957817;28;20504;-68
2022/09/01 11:47:42;;;;;;;6.78;1.63;;;;;;;15.81;40.04;98889.31;4957613;28;20562;-67
2022/09/01 11:50:16;;;;;;;2.92;1.35;;;;;;;15.85;40.23;98890.69;4957192;28;20089;-67